Washoe Valley, Nevada
Current Conditions -  °F | °C
As of 9:15 AM on Thursday 27 Nov 2014 (Local Time) from KCXP Reporting Station
Clear Clear  
Wind Chill: 48°   Ceiling: Unl
Heat Index: 48°   Visibility: 10mi
Dew Point: 27°   Wind: 0mph
Humidity: 43%   Direction: NA
Pressure: 30.29"   Gusts: NA
Location:  39.32°N, 119.8°W
Report Text: KCXP 271715Z AUTO 00000KT 10SM CLR 09/M03 A3029 RMK AO2
Loading
Personal Weather Stations






























Interactive Weather Map New forecast layout! Learn more

10-Day Weather Forecast

Advertisements
Track Severe Weather on mobile